Airfield :
LOGIN :

Register | Disclaimer

   EN    FR    IT 

 










Legend :    VFR   Marginal VFR   IFR   Intensive IFR   Very Intensive IFR
Visi :
Ceiling :
>= 8 km
>= 3000ft
5 to 8 km
1000 to 3000 ft
1500m to 5 km
500 to 1000 ft
800 to 1500m
200 to 500 ft
< 800m
< 200 ft
Symbols :   Thunderstorms  Fog  Heavy snow  Heavy precipitations  Wind > 20 kt
SIGMETs :     Misc.  Thunderstorms  Icing  Turbulence  Mountain Waves  Volcanic Ashes






- Airport Elevation : 319 ft


EIME - Casement Air Base

CURRENT METAR :
  • 151600Z 21011KT 9999 FEW018 SCT050 BKN220 04/01 Q0987

EXPIRED METARs :
  • 151500Z 22014KT 9999 FEW018 SCT250 04/01 Q0987
  • 151400Z 22009KT 9999 FEW018 SCT250 05/02 Q0987

TAF TAF EIME
Valid from the 15 at 15:00 until the 16 at 00:00 UTC


151400Z 1515/1524 20014KT 9999 FEW018 BKN030
TEMPO 1515/1519 -SHRA SCT018CB
BECMG 1518/1520 22019G30KT



MET'MAP, your aeronautical weather chart ! - Copyright ORBIFLY December 2007 - Disclaimer

ORBIFLY MET'MAP TEAM :

Programming & Development : Alexandra Zaïnal
Concept & original design : Baudouin d'Aumeries
Assistance for programming : Marc-Olivier Méhu
Technical & hardware support : Manuel Goepfert

Contact : metmap@orbifly.com




SOURCES & CREDITS :

   NOAA